createdAt,value
2022-11-16T00:00:05.879Z,17.65
2022-11-16T00:15:02.269Z,17.49
2022-11-16T00:30:01.933Z,17.68
2022-11-16T00:45:01.653Z,17.85
2022-11-16T01:00:02.241Z,17.96
2022-11-16T01:15:01.851Z,17.82
2022-11-16T01:30:02.522Z,17.31
2022-11-16T01:45:02.207Z,16.61
2022-11-16T02:00:01.848Z,16.33
2022-11-16T02:15:02.504Z,16.23
2022-11-16T02:30:02.170Z,16.08
2022-11-16T02:45:01.831Z,16
2022-11-16T03:00:01.458Z,15.87
2022-11-16T03:15:02.102Z,15.69
2022-11-16T03:30:01.811Z,15.56
2022-11-16T03:45:01.483Z,15.58
2022-11-16T04:00:02.110Z,15.61
2022-11-16T04:15:01.768Z,15.44
2022-11-16T04:30:01.484Z,15.54
2022-11-16T04:45:02.137Z,15.41
2022-11-16T05:00:01.789Z,15.41
2022-11-16T05:15:01.472Z,15.54
2022-11-16T05:30:02.201Z,15.49
2022-11-16T05:45:01.847Z,15.27
2022-11-16T06:00:01.550Z,15.08
2022-11-16T06:15:02.359Z,15.01
2022-11-16T06:30:02.085Z,15.37
2022-11-16T06:45:01.759Z,15.22
2022-11-16T07:00:01.425Z,15.12
2022-11-16T07:15:02.103Z,15.46
2022-11-16T07:30:01.831Z,15.51
2022-11-16T07:45:01.520Z,15.38
2022-11-16T08:00:02.357Z,15.35
2022-11-16T08:15:02.167Z,15.91
2022-11-16T08:30:01.828Z,15.87
2022-11-16T08:45:02.448Z,16.13
2022-11-16T09:00:02.112Z,16.21
2022-11-16T09:15:01.776Z,16.49
2022-11-16T09:30:02.446Z,17.12
2022-11-16T09:45:02.114Z,17.7
2022-11-16T10:00:01.822Z,18.05
2022-11-16T10:15:01.524Z,17.93
2022-11-16T10:30:02.232Z,17.73
2022-11-16T10:45:01.981Z,17.74
2022-11-16T11:00:01.683Z,18.24
2022-11-16T11:15:02.416Z,18.03
2022-11-16T11:30:02.097Z,18.71
2022-11-16T11:45:01.771Z,19.02
2022-11-16T12:00:02.460Z,20.4
2022-11-16T12:15:02.161Z,20.41
2022-11-16T12:30:01.878Z,19.79
2022-11-16T12:45:01.582Z,19.58
2022-11-16T13:00:02.248Z,19.33
2022-11-16T13:15:01.914Z,19.24
2022-11-16T13:30:01.655Z,19.06
2022-11-16T13:45:02.307Z,19.08
2022-11-16T14:00:01.955Z,21.3
2022-11-16T14:15:03.735Z,20.83
2022-11-16T14:30:01.838Z,21.39
2022-11-16T14:45:01.530Z,22.37
2022-11-16T15:00:02.206Z,22.52
2022-11-16T15:15:01.856Z,20.78
2022-11-16T15:30:01.535Z,18.78
2022-11-16T15:45:02.185Z,17.61
2022-11-16T16:00:01.952Z,16.81
2022-11-16T16:15:01.774Z,16.11
2022-11-16T16:30:02.586Z,15.66
2022-11-16T16:45:02.357Z,15.2
2022-11-16T17:00:02.127Z,15.07
2022-11-16T17:15:01.813Z,14.65
2022-11-16T17:30:02.762Z,14.51
2022-11-16T17:45:02.387Z,14.11
2022-11-16T18:00:01.976Z,13.94
2022-11-16T18:15:26.333Z,14.23
2022-11-16T18:30:02.403Z,14.67
2022-11-16T18:45:02.015Z,14.97
2022-11-16T19:00:01.675Z,15.2
2022-11-16T19:15:02.367Z,15.6
2022-11-16T19:30:02.014Z,15.87
2022-11-16T19:45:01.712Z,15.54
2022-11-16T20:00:02.320Z,15.56
2022-11-16T20:15:01.976Z,15.22
2022-11-16T20:30:06.487Z,15.4
2022-11-16T20:45:01.901Z,15.42
2022-11-16T21:00:01.582Z,15.18
2022-11-16T21:15:02.256Z,15.36
2022-11-16T21:30:02.035Z,15.55
2022-11-16T21:45:01.712Z,15.54
2022-11-16T22:00:01.362Z,15.1
2022-11-16T22:15:02.050Z,14.73
2022-11-16T22:30:01.774Z,15.06
2022-11-16T22:45:01.417Z,14.81
2022-11-16T23:00:02.083Z,14.57
2022-11-16T23:15:01.745Z,14.63
2022-11-16T23:30:01.438Z,14.88
2022-11-16T23:45:02.132Z,14.94
